createdAt,value
2017-04-30T00:00:44.389Z,7.40
2017-04-30T00:03:13.423Z,7.47
2017-04-30T00:05:43.213Z,7.07
2017-04-30T00:08:12.255Z,6.62
2017-04-30T00:10:41.323Z,6.92
2017-04-30T00:13:11.125Z,7.07
2017-04-30T00:15:40.216Z,7.25
2017-04-30T00:18:10.038Z,7.32
2017-04-30T00:20:39.813Z,7.77
2017-04-30T00:23:09.425Z,7.30
2017-04-30T00:25:38.448Z,11.42
2017-04-30T00:28:07.489Z,6.68
2017-04-30T00:30:36.526Z,8.13
2017-04-30T00:33:05.613Z,8.03
2017-04-30T00:35:34.632Z,6.00
2017-04-30T00:38:04.391Z,7.73
2017-04-30T00:40:33.430Z,6.32
2017-04-30T00:43:03.202Z,6.73
2017-04-30T00:45:32.247Z,10.57
2017-04-30T00:48:01.291Z,8.38
2017-04-30T00:50:30.349Z,6.65
2017-04-30T00:52:59.383Z,7.60
2017-04-30T00:55:28.394Z,6.77
2017-04-30T00:57:58.196Z,6.23
2017-04-30T01:00:27.308Z,7.48
2017-04-30T01:02:56.355Z,8.25
2017-04-30T01:05:25.393Z,6.42
2017-04-30T01:07:55.212Z,6.55
2017-04-30T01:10:24.984Z,6.20
2017-04-30T01:12:54.011Z,6.85
2017-04-30T01:15:23.797Z,6.22
2017-04-30T01:17:52.840Z,6.47
2017-04-30T01:20:21.879Z,5.87
2017-04-30T01:22:50.919Z,5.87
2017-04-30T01:25:19.988Z,6.88
2017-04-30T01:27:49.763Z,6.62
2017-04-30T01:30:18.803Z,6.10
2017-04-30T01:32:48.595Z,6.40
2017-04-30T01:35:17.628Z,6.55
2017-04-30T01:37:46.663Z,8.48
2017-04-30T01:40:15.691Z,6.47
2017-04-30T01:42:44.733Z,5.85
2017-04-30T01:45:13.775Z,6.87
2017-04-30T01:47:42.798Z,5.22
2017-04-30T01:50:11.848Z,5.55
2017-04-30T01:52:40.867Z,5.62
2017-04-30T01:55:10.655Z,6.22
2017-04-30T01:57:39.691Z,6.00
2017-04-30T02:00:08.755Z,6.50
2017-04-30T02:02:37.777Z,6.08
2017-04-30T02:05:06.806Z,6.50
2017-04-30T02:07:35.843Z,7.08
2017-04-30T02:10:05.635Z,6.60
2017-04-30T02:12:34.681Z,6.30
2017-04-30T02:15:03.695Z,6.77
2017-04-30T02:17:32.754Z,6.48
2017-04-30T02:20:01.812Z,6.52
2017-04-30T02:22:30.838Z,6.33
2017-04-30T02:24:59.872Z,6.00
2017-04-30T02:27:28.927Z,6.02
2017-04-30T02:29:57.961Z,5.70
2017-04-30T02:32:26.997Z,6.18
2017-04-30T02:34:56.808Z,5.92
2017-04-30T02:37:26.565Z,6.35
2017-04-30T02:39:56.166Z,6.30
2017-04-30T02:42:25.324Z,5.75
2017-04-30T02:44:54.390Z,6.38
2017-04-30T02:47:23.454Z,6.10
2017-04-30T02:49:52.478Z,6.07
2017-04-30T02:52:21.545Z,5.62
2017-04-30T02:54:50.573Z,6.23
2017-04-30T02:57:19.597Z,6.23
2017-04-30T02:59:48.692Z,6.40
2017-04-30T03:02:18.454Z,6.52
2017-04-30T03:04:47.502Z,6.50
2017-04-30T03:07:16.539Z,7.05
2017-04-30T03:09:45.616Z,6.87
2017-04-30T03:12:14.638Z,6.33
2017-04-30T03:14:43.666Z,6.27
2017-04-30T03:17:13.455Z,7.38
2017-04-30T03:19:42.500Z,6.82
2017-04-30T03:22:11.663Z,6.78
2017-04-30T03:24:40.675Z,6.25
2017-04-30T03:29:44.992Z,7.47
2017-04-30T03:32:14.785Z,7.35
2017-04-30T03:34:43.813Z,6.45
2017-04-30T03:37:12.840Z,6.42
2017-04-30T03:39:53.807Z,5.82
2017-04-30T03:42:40.737Z,6.25
2017-04-30T03:45:28.441Z,6.15
2017-04-30T03:48:15.493Z,5.57
2017-04-30T03:51:02.353Z,6.02
2017-04-30T03:53:49.438Z,6.50
2017-04-30T03:56:36.274Z,5.72
2017-04-30T03:59:23.235Z,6.15
2017-04-30T04:02:10.187Z,6.38
2017-04-30T04:04:57.274Z,6.12
2017-04-30T04:07:44.278Z,6.53
2017-04-30T04:10:31.169Z,6.12
2017-04-30T04:13:18.250Z,6.28
2017-04-30T04:16:05.733Z,6.17
2017-04-30T04:18:53.457Z,5.80
2017-04-30T04:21:40.490Z,6.13
2017-04-30T04:24:27.345Z,5.73
2017-04-30T04:27:14.406Z,5.73
2017-04-30T04:30:01.892Z,5.48
2017-04-30T04:32:48.988Z,5.60
2017-04-30T04:35:35.928Z,6.07
2017-04-30T04:38:22.839Z,6.52
2017-04-30T04:41:09.656Z,5.97
2017-04-30T04:43:56.693Z,5.70
2017-04-30T04:46:43.693Z,6.38
2017-04-30T04:49:30.798Z,6.42
2017-04-30T04:52:17.827Z,6.15
2017-04-30T04:55:04.893Z,6.30
2017-04-30T04:57:51.857Z,5.62
2017-04-30T05:00:38.755Z,5.88
2017-04-30T05:03:25.629Z,5.23
2017-04-30T05:06:13.357Z,5.08
2017-04-30T05:09:00.309Z,5.50
2017-04-30T05:11:47.338Z,5.52
2017-04-30T05:14:34.144Z,5.27
2017-04-30T05:17:21.078Z,5.90
2017-04-30T05:20:08.049Z,5.78
2017-04-30T05:22:55.210Z,6.08
2017-04-30T05:25:42.078Z,6.33
2017-04-30T05:28:29.753Z,5.27
2017-04-30T05:31:16.485Z,6.48
2017-04-30T05:34:03.502Z,6.43
2017-04-30T05:36:50.366Z,6.47
2017-04-30T05:39:37.269Z,6.12
2017-04-30T05:42:24.865Z,6.35
2017-04-30T05:45:12.664Z,5.80
2017-04-30T05:47:59.462Z,6.58
2017-04-30T05:50:46.449Z,6.60
2017-04-30T05:53:33.440Z,6.12
2017-04-30T05:56:20.653Z,6.70
2017-04-30T05:59:07.726Z,6.30
2017-04-30T06:01:54.857Z,7.18
2017-04-30T06:04:41.694Z,6.97
2017-04-30T06:07:28.646Z,6.30
2017-04-30T06:10:15.617Z,6.70
2017-04-30T06:13:02.534Z,6.88
2017-04-30T06:15:50.327Z,6.13
2017-04-30T06:18:37.357Z,6.92
2017-04-30T06:21:24.259Z,7.30
2017-04-30T06:24:11.323Z,6.60
2017-04-30T06:26:58.325Z,7.02
2017-04-30T06:29:45.188Z,7.33
2017-04-30T06:32:32.189Z,6.70
2017-04-30T06:35:19.096Z,7.30
2017-04-30T06:38:05.981Z,6.92
2017-04-30T06:40:52.926Z,7.40
2017-04-30T06:43:39.753Z,7.73
2017-04-30T06:46:26.705Z,6.22
2017-04-30T06:49:14.411Z,7.33
2017-04-30T06:52:02.142Z,7.82
2017-04-30T06:54:49.016Z,7.00
2017-04-30T06:57:36.149Z,7.70
2017-04-30T07:00:22.998Z,6.42
2017-04-30T07:03:10.816Z,7.75
2017-04-30T07:05:57.830Z,10.90
2017-04-30T07:08:44.677Z,7.05
2017-04-30T07:11:32.474Z,8.57
2017-04-30T07:14:19.477Z,8.27
2017-04-30T07:17:06.519Z,7.17
2017-04-30T07:19:54.102Z,8.52
2017-04-30T07:22:40.947Z,8.14
2017-04-30T07:25:27.933Z,8.06
2017-04-30T07:28:14.877Z,6.68
2017-04-30T07:31:01.728Z,7.78
2017-04-30T07:33:48.809Z,8.26
2017-04-30T07:36:35.885Z,7.76
2017-04-30T07:39:23.036Z,7.36
2017-04-30T07:42:10.041Z,7.70
2017-04-30T07:44:45.173Z,7.22
2017-04-30T07:47:14.213Z,8.50
2017-04-30T07:49:43.267Z,8.16
2017-04-30T07:52:12.303Z,6.90
2017-04-30T07:54:41.360Z,6.88
2017-04-30T07:57:10.393Z,6.70
2017-04-30T07:59:39.452Z,7.28
2017-04-30T08:02:08.486Z,5.94
2017-04-30T08:04:37.530Z,7.24
2017-04-30T08:07:06.570Z,6.86
2017-04-30T08:09:35.606Z,6.50
2017-04-30T08:12:04.666Z,6.40
2017-04-30T08:14:33.689Z,7.38
2017-04-30T08:17:02.773Z,6.38
2017-04-30T08:19:31.797Z,6.58
2017-04-30T08:22:00.842Z,6.58
2017-04-30T08:24:29.959Z,6.30
2017-04-30T08:26:58.993Z,6.26
2017-04-30T08:29:28.018Z,5.70
2017-04-30T08:31:57.087Z,5.62
2017-04-30T08:34:26.122Z,3.98
2017-04-30T08:36:55.176Z,6.14
2017-04-30T08:39:24.257Z,5.60
2017-04-30T08:41:53.285Z,5.90
2017-04-30T08:44:22.345Z,6.58
2017-04-30T08:46:51.359Z,5.82
2017-04-30T08:49:20.411Z,6.42
2017-04-30T08:51:49.435Z,5.78
2017-04-30T08:54:18.482Z,5.00
2017-04-30T08:56:48.241Z,6.30
2017-04-30T08:59:17.300Z,6.80
2017-04-30T09:01:46.356Z,5.88
2017-04-30T09:04:15.389Z,5.90
2017-04-30T09:06:44.417Z,5.78
2017-04-30T09:09:13.468Z,5.08
2017-04-30T09:11:43.328Z,6.00
2017-04-30T09:14:12.381Z,5.10
2017-04-30T09:16:41.405Z,6.20
2017-04-30T09:19:10.455Z,5.62
2017-04-30T09:21:40.237Z,5.72
2017-04-30T09:24:09.287Z,5.66
2017-04-30T09:26:38.325Z,5.80
2017-04-30T09:29:07.373Z,6.50
2017-04-30T09:31:36.424Z,5.88
2017-04-30T09:34:05.478Z,6.48
2017-04-30T09:36:34.528Z,6.04
2017-04-30T09:39:03.557Z,5.78
2017-04-30T09:41:32.613Z,6.40
2017-04-30T09:44:02.400Z,6.10
2017-04-30T09:46:31.446Z,6.00
2017-04-30T09:49:00.478Z,6.94
2017-04-30T09:51:29.522Z,7.24
2017-04-30T09:53:59.286Z,6.88
2017-04-30T09:56:28.422Z,5.54
2017-04-30T09:58:57.450Z,6.24
2017-04-30T10:01:26.480Z,7.02
2017-04-30T10:03:55.525Z,6.62
2017-04-30T10:06:24.549Z,7.22
2017-04-30T10:08:53.603Z,6.60
2017-04-30T10:11:22.653Z,6.92
2017-04-30T10:13:51.714Z,6.24
2017-04-30T10:16:20.772Z,7.28
2017-04-30T10:18:49.799Z,6.56
2017-04-30T10:21:18.844Z,6.38
2017-04-30T10:23:47.866Z,7.08
2017-04-30T10:26:16.922Z,6.42
2017-04-30T10:28:45.954Z,7.04
2017-04-30T10:31:14.993Z,5.50
2017-04-30T10:33:44.031Z,7.52
2017-04-30T10:36:13.822Z,5.82
2017-04-30T10:38:42.871Z,6.50
2017-04-30T10:41:11.883Z,6.22
2017-04-30T10:43:40.957Z,5.88
2017-04-30T10:46:09.979Z,5.22
2017-04-30T10:48:39.031Z,6.88
2017-04-30T10:51:08.060Z,6.76
2017-04-30T10:53:37.200Z,6.10
2017-04-30T10:56:06.207Z,6.34
2017-04-30T10:58:35.234Z,6.68
2017-04-30T11:01:04.298Z,5.52
2017-04-30T11:03:33.391Z,5.28
2017-04-30T11:06:03.152Z,7.04
2017-04-30T11:08:32.182Z,5.30
2017-04-30T11:11:01.969Z,6.14
2017-04-30T11:13:31.067Z,6.78
2017-04-30T11:16:00.542Z,12.18
2017-04-30T11:18:29.618Z,5.46
2017-04-30T11:20:58.649Z,5.60
2017-04-30T11:23:27.703Z,5.64
2017-04-30T11:25:56.729Z,6.14
2017-04-30T11:28:25.809Z,5.54
2017-04-30T11:30:55.107Z,5.74
2017-04-30T11:33:24.137Z,5.34
2017-04-30T11:35:53.181Z,5.80
2017-04-30T11:38:22.214Z,5.98
2017-04-30T11:40:51.265Z,5.12
2017-04-30T11:43:20.309Z,5.62
2017-04-30T11:45:49.356Z,6.58
2017-04-30T11:48:18.416Z,6.50
2017-04-30T11:50:48.203Z,4.86
2017-04-30T11:53:17.242Z,6.38
2017-04-30T11:55:46.272Z,5.82
2017-04-30T11:58:15.318Z,6.28
2017-04-30T12:00:44.356Z,5.50
2017-04-30T12:03:13.408Z,6.02
2017-04-30T12:05:42.537Z,5.82
2017-04-30T12:08:11.565Z,5.80
2017-04-30T12:10:40.681Z,5.88
2017-04-30T12:13:09.692Z,6.10
2017-04-30T12:15:38.740Z,5.82
2017-04-30T12:18:07.769Z,5.72
2017-04-30T12:20:37.564Z,5.64
2017-04-30T12:23:07.330Z,6.58
2017-04-30T12:25:36.369Z,5.60
2017-04-30T12:28:06.150Z,6.62
2017-04-30T12:30:35.189Z,6.22
2017-04-30T12:33:04.969Z,5.50
2017-04-30T12:35:34.020Z,6.72
2017-04-30T12:38:03.057Z,6.76
2017-04-30T12:40:32.143Z,5.82
2017-04-30T12:43:01.269Z,6.64
2017-04-30T12:45:30.281Z,6.40
2017-04-30T12:47:59.313Z,6.26
2017-04-30T12:50:28.354Z,5.40
2017-04-30T12:52:58.131Z,5.70
2017-04-30T12:55:27.206Z,6.02
2017-04-30T12:57:56.247Z,5.88
2017-04-30T13:00:26.046Z,6.48
2017-04-30T13:02:55.154Z,7.18
2017-04-30T13:05:24.920Z,6.54
2017-04-30T13:07:53.973Z,6.98
2017-04-30T13:10:23.770Z,5.92
2017-04-30T13:12:52.803Z,6.00
2017-04-30T13:15:21.838Z,6.22
2017-04-30T13:17:50.896Z,6.86
2017-04-30T13:20:19.954Z,6.34
2017-04-30T13:22:48.970Z,6.36
2017-04-30T13:25:18.005Z,5.18
2017-04-30T13:27:47.073Z,5.06
2017-04-30T13:30:16.127Z,8.78
2017-04-30T13:32:45.901Z,5.72
2017-04-30T13:35:14.957Z,5.82
2017-04-30T13:37:43.983Z,5.60
2017-04-30T13:40:13.013Z,5.28
2017-04-30T13:42:42.838Z,5.72
2017-04-30T13:45:12.609Z,5.62
2017-04-30T13:47:41.658Z,4.78
2017-04-30T13:50:10.755Z,5.46
2017-04-30T13:52:39.801Z,4.44
2017-04-30T13:55:08.835Z,4.74
2017-04-30T13:57:37.870Z,5.46
2017-04-30T14:00:06.929Z,5.38
2017-04-30T14:02:35.946Z,4.30
2017-04-30T14:05:04.993Z,4.88
2017-04-30T14:07:34.778Z,4.52
2017-04-30T14:10:04.596Z,7.84
2017-04-30T14:12:33.624Z,5.56
2017-04-30T14:15:02.650Z,5.00
2017-04-30T14:17:31.699Z,6.02
2017-04-30T14:20:01.473Z,5.38
2017-04-30T14:22:30.516Z,4.96
2017-04-30T14:24:59.545Z,4.62
2017-04-30T14:27:28.606Z,5.14
2017-04-30T14:29:57.637Z,4.60
2017-04-30T14:32:26.661Z,3.76
2017-04-30T14:34:56.449Z,5.30
2017-04-30T14:37:25.505Z,4.02
2017-04-30T14:39:54.545Z,4.84
2017-04-30T14:42:23.581Z,3.92
2017-04-30T14:44:52.642Z,4.78
2017-04-30T14:47:21.734Z,4.78
2017-04-30T14:49:50.792Z,4.40
2017-04-30T14:52:19.842Z,4.62
2017-04-30T14:54:48.849Z,3.86
2017-04-30T14:57:17.909Z,5.36
2017-04-30T14:59:46.994Z,4.42
2017-04-30T15:02:16.820Z,4.68
2017-04-30T15:04:45.932Z,3.74
2017-04-30T15:07:14.971Z,4.54
2017-04-30T15:09:44.021Z,4.14
2017-04-30T15:12:13.821Z,3.94
2017-04-30T15:14:43.589Z,3.94
2017-04-30T15:17:12.724Z,4.46
2017-04-30T15:19:41.757Z,4.56
2017-04-30T15:22:10.827Z,4.70
2017-04-30T15:24:40.637Z,4.28
2017-04-30T15:27:09.673Z,5.16
2017-04-30T15:29:38.710Z,4.02
2017-04-30T15:32:07.753Z,4.18
2017-04-30T15:34:36.801Z,4.52
2017-04-30T15:37:05.848Z,4.80
2017-04-30T15:39:34.868Z,4.30
2017-04-30T15:42:04.040Z,4.68
2017-04-30T15:44:33.105Z,4.78
2017-04-30T15:47:02.153Z,4.10
2017-04-30T15:49:31.181Z,4.44
2017-04-30T15:52:00.972Z,3.90
2017-04-30T15:54:30.087Z,4.68
2017-04-30T15:56:59.864Z,4.12
2017-04-30T15:59:28.901Z,4.00
2017-04-30T16:01:57.949Z,4.40
2017-04-30T16:04:26.982Z,4.42
2017-04-30T16:06:56.773Z,5.36
2017-04-30T16:09:25.797Z,4.88
2017-04-30T16:11:54.912Z,4.40
2017-04-30T16:14:23.929Z,4.42
2017-04-30T16:16:52.977Z,5.26
2017-04-30T16:19:22.009Z,4.38
2017-04-30T16:21:51.047Z,4.34
2017-04-30T16:24:20.821Z,4.82
2017-04-30T16:26:49.895Z,4.12
2017-04-30T16:29:18.909Z,4.28
2017-04-30T16:31:47.945Z,5.00
2017-04-30T16:34:17.725Z,4.12
2017-04-30T16:36:46.854Z,4.18
2017-04-30T16:39:15.887Z,4.40
2017-04-30T16:41:44.908Z,4.60
2017-04-30T16:44:13.964Z,3.90
2017-04-30T16:46:42.996Z,3.78
2017-04-30T16:49:12.045Z,4.22
2017-04-30T16:51:41.079Z,4.80
2017-04-30T16:54:10.116Z,3.94
2017-04-30T16:56:39.159Z,4.02
2017-04-30T16:59:08.199Z,4.46
2017-04-30T17:01:37.966Z,4.20
2017-04-30T17:04:07.009Z,4.62
2017-04-30T17:06:36.049Z,4.14
2017-04-30T17:09:05.089Z,4.18
2017-04-30T17:11:34.864Z,3.94
2017-04-30T17:14:03.898Z,4.52
2017-04-30T17:16:33.670Z,3.90
2017-04-30T17:19:02.718Z,4.70
2017-04-30T17:21:31.746Z,6.08
2017-04-30T17:24:00.802Z,3.60
2017-04-30T17:26:30.654Z,4.16
2017-04-30T17:28:59.685Z,3.90
2017-04-30T17:31:29.459Z,4.04
2017-04-30T17:33:58.507Z,3.66
2017-04-30T17:36:27.544Z,3.98
2017-04-30T17:38:56.613Z,4.00
2017-04-30T17:41:25.641Z,3.88
2017-04-30T17:43:54.698Z,4.16
2017-04-30T17:46:23.754Z,3.90
2017-04-30T17:48:52.787Z,4.06
2017-04-30T17:51:21.817Z,4.36
2017-04-30T17:53:50.881Z,3.90
2017-04-30T17:56:19.911Z,4.46
2017-04-30T17:58:48.973Z,4.24
2017-04-30T18:01:18.001Z,4.10
2017-04-30T18:03:47.038Z,3.96
2017-04-30T18:06:16.088Z,3.60
2017-04-30T18:08:45.244Z,4.46
2017-04-30T18:11:14.315Z,4.62
2017-04-30T18:13:43.333Z,3.94
2017-04-30T18:16:12.396Z,4.14
2017-04-30T18:18:42.176Z,4.60
2017-04-30T18:21:11.220Z,4.10
2017-04-30T18:23:40.254Z,3.70
2017-04-30T18:26:09.334Z,3.88
2017-04-30T18:28:38.333Z,4.36
2017-04-30T18:31:07.381Z,4.18
2017-04-30T18:33:37.150Z,3.98
2017-04-30T18:36:06.219Z,3.92
2017-04-30T18:38:35.238Z,4.20
2017-04-30T18:41:04.300Z,4.88
2017-04-30T18:43:33.318Z,3.56
2017-04-30T18:46:02.373Z,4.84
2017-04-30T18:48:31.418Z,3.98
2017-04-30T18:51:00.475Z,4.34
2017-04-30T18:53:29.505Z,4.56
2017-04-30T18:55:58.568Z,4.10
2017-04-30T18:58:27.581Z,3.68
2017-04-30T19:00:56.677Z,4.10
2017-04-30T19:03:25.713Z,3.94
2017-04-30T19:05:55.489Z,4.34
2017-04-30T19:08:24.539Z,4.14
2017-04-30T19:10:53.584Z,3.80
2017-04-30T19:13:23.375Z,4.64
2017-04-30T19:15:52.430Z,4.88
2017-04-30T19:18:21.499Z,4.38
2017-04-30T19:20:50.532Z,4.88
2017-04-30T19:23:19.662Z,4.50
2017-04-30T19:25:48.744Z,4.02
2017-04-30T19:28:17.769Z,5.04
2017-04-30T19:30:46.878Z,4.68
2017-04-30T19:33:15.907Z,4.56
2017-04-30T19:35:44.956Z,4.16
2017-04-30T19:38:14.733Z,4.48
2017-04-30T19:40:43.775Z,4.36
2017-04-30T19:43:13.557Z,4.50
2017-04-30T19:45:42.614Z,4.36
2017-04-30T19:48:11.661Z,5.00
2017-04-30T19:50:40.686Z,4.12
2017-04-30T19:53:09.729Z,5.24
2017-04-30T19:55:38.770Z,5.72
2017-04-30T19:58:07.854Z,6.32
2017-04-30T20:00:36.942Z,5.88
2017-04-30T20:03:06.092Z,5.38
2017-04-30T20:05:35.138Z,5.62
2017-04-30T20:08:04.909Z,7.70
2017-04-30T20:10:33.958Z,6.62
2017-04-30T20:13:03.072Z,6.50
2017-04-30T20:15:32.082Z,6.02
2017-04-30T20:18:01.209Z,7.90
2017-04-30T20:20:30.329Z,6.86
2017-04-30T20:23:00.102Z,7.36
2017-04-30T20:25:29.191Z,8.00
2017-04-30T20:27:58.263Z,7.08
2017-04-30T20:30:27.318Z,6.92
2017-04-30T20:32:57.150Z,6.60
2017-04-30T20:35:26.179Z,7.68
2017-04-30T20:37:55.258Z,7.32
2017-04-30T20:40:24.300Z,7.44
2017-04-30T20:42:54.168Z,6.88
2017-04-30T20:45:23.224Z,6.30
2017-04-30T20:47:52.310Z,7.08
2017-04-30T20:50:22.089Z,5.56
2017-04-30T20:52:51.146Z,6.60
2017-04-30T20:55:20.168Z,6.64
2017-04-30T20:57:49.227Z,9.80
2017-04-30T21:00:18.252Z,6.30
2017-04-30T21:02:47.310Z,5.40
2017-04-30T21:05:16.353Z,6.58
2017-04-30T21:07:45.383Z,6.96
2017-04-30T21:10:15.186Z,5.28
2017-04-30T21:12:44.965Z,7.00
2017-04-30T21:15:14.013Z,5.40
2017-04-30T21:17:43.046Z,5.28
2017-04-30T21:20:12.109Z,5.38
2017-04-30T21:22:41.147Z,5.42
2017-04-30T21:25:11.058Z,5.74
2017-04-30T21:27:40.101Z,5.90
2017-04-30T21:30:09.144Z,7.78
2017-04-30T21:32:38.188Z,7.98
2017-04-30T21:35:07.242Z,6.88
2017-04-30T21:37:36.365Z,6.74
2017-04-30T21:40:05.393Z,6.64
2017-04-30T21:42:34.501Z,6.02
2017-04-30T21:45:03.567Z,5.84
2017-04-30T21:47:32.602Z,6.48
2017-04-30T21:50:01.649Z,6.46
2017-04-30T21:52:30.685Z,6.46
2017-04-30T21:55:00.085Z,7.24
2017-04-30T21:57:29.107Z,6.68
2017-04-30T21:59:58.222Z,6.52
2017-04-30T22:02:27.234Z,6.20
2017-04-30T22:04:56.296Z,5.70
2017-04-30T22:07:25.335Z,5.80
2017-04-30T22:09:54.378Z,6.18
2017-04-30T22:12:23.415Z,6.20
2017-04-30T22:14:52.462Z,5.92
2017-04-30T22:17:21.488Z,6.60
2017-04-30T22:19:50.553Z,5.84
2017-04-30T22:22:19.575Z,6.64
2017-04-30T22:24:48.628Z,6.20
2017-04-30T22:27:17.669Z,6.66
2017-04-30T22:32:22.109Z,5.96
2017-04-30T22:34:51.157Z,6.16
2017-04-30T22:37:20.193Z,6.52
2017-04-30T22:39:49.245Z,6.22
2017-04-30T22:42:18.288Z,6.66
2017-04-30T22:44:47.474Z,6.26
2017-04-30T22:47:17.231Z,7.32
2017-04-30T22:49:46.285Z,6.76
2017-04-30T22:52:15.304Z,5.98
2017-04-30T22:54:44.391Z,6.30
2017-04-30T22:57:13.401Z,6.86
2017-04-30T22:59:42.459Z,6.14
2017-04-30T23:02:11.484Z,6.34
2017-04-30T23:04:40.608Z,6.84
2017-04-30T23:07:09.635Z,6.56
2017-04-30T23:09:39.417Z,6.34
2017-04-30T23:12:08.528Z,7.42
2017-04-30T23:14:38.326Z,7.24
2017-04-30T23:17:07.377Z,6.36
2017-04-30T23:19:36.405Z,6.66
2017-04-30T23:22:05.466Z,6.92
2017-04-30T23:24:34.497Z,13.50
2017-04-30T23:27:03.561Z,7.22
2017-04-30T23:29:32.586Z,7.22
2017-04-30T23:32:02.474Z,6.90
2017-04-30T23:34:31.520Z,7.28
2017-04-30T23:37:00.599Z,7.14
2017-04-30T23:39:30.382Z,7.04
2017-04-30T23:41:59.429Z,7.28
2017-04-30T23:44:29.187Z,7.16
2017-04-30T23:46:58.246Z,6.94
2017-04-30T23:49:27.274Z,7.62
2017-04-30T23:51:56.329Z,7.66
2017-04-30T23:54:25.361Z,8.06
2017-04-30T23:56:54.401Z,7.72
2017-04-30T23:59:23.434Z,8.10
